Time;durP1;ratioP1;P1;durP2;ratioP2;P2;SDS_P1;SDS_P2;PMS_P1;PMS_P2;Temp;Humidity;BMP_temperature;BMP_pressure;BME280_temperature;BME280_humidity;BME280_pressure;Samples;Min_cycle;Max_cycle;Signal;HPM_P1;HPM_P2
2022/10/28 00:00:56;;;;;;;8.10;4.35;;;;;;;;;;4974479;28;20261;-75
2022/10/28 00:03:24;;;;;;;7.25;4.57;;;;;;;;;;4975004;28;20218;-76
2022/10/28 00:05:53;;;;;;;4.07;3.42;;;;;;;;;;4970331;28;20226;-75
2022/10/28 00:08:22;;;;;;;5.93;3.90;;;;;;;;;;4955183;28;20238;-76
2022/10/28 00:10:51;;;;;;;6.83;4.07;;;;;;;;;;4954996;28;20277;-75
2022/10/28 00:13:19;;;;;;;5.67;4.10;;;;;;;;;;4955440;29;20202;-75
2022/10/28 00:15:48;;;;;;;5.73;4.10;;;;;;;;;;4955028;29;20241;-75
2022/10/28 00:18:18;;;;;;;8.77;4.57;;;;;;;;;;4955293;29;20738;-75
2022/10/28 00:20:46;;;;;;;5.70;4.30;;;;;;;;;;4955184;28;20594;-75
2022/10/28 00:23:15;;;;;;;8.57;4.20;;;;;;;;;;4955377;28;20719;-75
2022/10/28 00:25:43;;;;;;;6.03;4.30;;;;;;;;;;4961324;28;20202;-75
2022/10/28 00:28:11;;;;;;;7.97;4.47;;;;;;;;;;4974464;28;20635;-75
2022/10/28 00:30:40;;;;;;;9.63;4.43;;;;;;;;;;4973880;28;20309;-75
2022/10/28 00:33:08;;;;;;;6.37;4.80;;;;;;;;;;4974052;28;20206;-75
2022/10/28 00:35:38;;;;;;;8.13;4.90;;;;;;;;;;4974238;28;20237;-75
2022/10/28 00:38:07;;;;;;;7.37;4.70;;;;;;;;;;4974117;28;20312;-75
2022/10/28 00:40:35;;;;;;;9.53;4.90;;;;;;;;;;4974254;28;20226;-75
2022/10/28 00:43:04;;;;;;;7.57;4.67;;;;;;;;;;4974114;28;20234;-75
2022/10/28 00:45:32;;;;;;;7.90;4.57;;;;;;;;;;4976193;28;20292;-75
2022/10/28 00:48:02;;;;;;;7.67;4.63;;;;;;;;;;4978042;28;20329;-75
2022/10/28 00:50:43;;;;;;;8.77;4.47;;;;;;;;;;4978263;28;20253;-75
2022/10/28 00:53:15;;;;;;;9.20;4.50;;;;;;;;;;4978130;28;20252;-75
2022/10/28 00:55:43;;;;;;;6.73;4.73;;;;;;;;;;4977924;28;20622;-75
2022/10/28 00:58:12;;;;;;;9.10;4.50;;;;;;;;;;4977458;28;20245;-75
2022/10/28 01:00:41;;;;;;;6.60;4.73;;;;;;;;;;4978005;28;20775;-75
2022/10/28 01:03:09;;;;;;;10.20;5.03;;;;;;;;;;4977806;28;20222;-75
2022/10/28 01:05:41;;;;;;;11.25;5.30;;;;;;;;;;4977680;28;20671;-75
2022/10/28 01:08:11;;;;;;;17.33;6.23;;;;;;;;;;4977937;28;20277;-75
2022/10/28 01:10:51;;;;;;;16.53;5.47;;;;;;;;;;4977275;28;20317;-75
2022/10/28 01:13:24;;;;;;;9.73;5.70;;;;;;;;;;4977693;28;20236;-75
2022/10/28 01:15:58;;;;;;;10.20;5.50;;;;;;;;;;4977595;28;20246;-75
2022/10/28 01:18:29;;;;;;;8.50;5.00;;;;;;;;;;4977366;28;20305;-76
2022/10/28 01:21:22;;;;;;;10.32;4.65;;;;;;;;;;4977513;28;20276;-76
2022/10/28 01:24:00;;;;;;;8.70;4.50;;;;;;;;;;4967974;28;20297;-75
2022/10/28 01:26:39;;;;;;;5.70;4.63;;;;;;;;;;4977342;28;20702;-75
2022/10/28 01:29:18;;;;;;;11.68;4.72;;;;;;;;;;4977543;28;20655;-75
2022/10/28 01:31:51;;;;;;;10.50;4.67;;;;;;;;;;4977686;28;20233;-75
2022/10/28 01:34:22;;;;;;;8.95;4.50;;;;;;;;;;4977410;28;20288;-75
2022/10/28 01:36:55;;;;;;;8.97;4.23;;;;;;;;;;4965585;28;20310;-75
2022/10/28 01:39:27;;;;;;;11.13;4.72;;;;;;;;;;4957750;29;20242;-76
2022/10/28 01:41:59;;;;;;;10.65;4.70;;;;;;;;;;4968928;28;20317;-75
2022/10/28 01:44:30;;;;;;;5.80;4.35;;;;;;;;;;4977429;28;20611;-75
2022/10/28 01:47:03;;;;;;;8.75;4.70;;;;;;;;;;4976986;28;20206;-75
2022/10/28 01:49:38;;;;;;;9.25;4.78;;;;;;;;;;4976944;28;20233;-75
2022/10/28 01:52:09;;;;;;;9.88;5.20;;;;;;;;;;4977669;28;20221;-75
2022/10/28 01:54:39;;;;;;;12.95;4.53;;;;;;;;;;4976792;28;20273;-75
2022/10/28 01:57:07;;;;;;;9.73;5.03;;;;;;;;;;4975942;28;20256;-75
2022/10/28 01:59:37;;;;;;;12.73;4.50;;;;;;;;;;4976919;28;20265;-75
2022/10/28 02:02:07;;;;;;;13.10;4.60;;;;;;;;;;4976882;28;20308;-75
2022/10/28 02:04:35;;;;;;;8.23;4.32;;;;;;;;;;4976625;28;20637;-75
2022/10/28 02:07:05;;;;;;;10.75;4.55;;;;;;;;;;4976642;28;20264;-75
2022/10/28 02:09:38;;;;;;;6.70;4.50;;;;;;;;;;4976276;28;20206;-75
2022/10/28 02:12:19;;;;;;;5.68;4.18;;;;;;;;;;4976780;28;20722;-75
2022/10/28 02:15:06;;;;;;;7.35;4.20;;;;;;;;;;4976664;28;20285;-75
2022/10/28 02:17:43;;;;;;;7.55;4.50;;;;;;;;;;4976727;28;20194;-75
2022/10/28 02:20:18;;;;;;;5.75;4.43;;;;;;;;;;4976247;28;20264;-75
2022/10/28 02:22:49;;;;;;;9.02;4.47;;;;;;;;;;4976436;28;20232;-75
2022/10/28 02:25:19;;;;;;;8.15;4.47;;;;;;;;;;4976398;28;20218;-75
2022/10/28 02:27:49;;;;;;;10.10;4.88;;;;;;;;;;4976363;28;20300;-75
2022/10/28 02:30:21;;;;;;;8.13;3.90;;;;;;;;;;4976492;28;20710;-75
2022/10/28 02:32:52;;;;;;;9.20;4.20;;;;;;;;;;4976804;28;20647;-75
2022/10/28 02:35:23;;;;;;;7.75;4.28;;;;;;;;;;4976050;28;20241;-75
2022/10/28 02:37:53;;;;;;;10.70;4.47;;;;;;;;;;4971199;28;20284;-75
2022/10/28 02:40:23;;;;;;;8.60;4.22;;;;;;;;;;4975947;28;20743;-75
2022/10/28 02:42:53;;;;;;;9.45;4.00;;;;;;;;;;4975835;28;20284;-75
2022/10/28 02:45:25;;;;;;;8.25;4.68;;;;;;;;;;4975840;28;20201;-75
2022/10/28 02:47:55;;;;;;;8.13;4.68;;;;;;;;;;4976253;28;20186;-75
2022/10/28 02:50:26;;;;;;;11.20;4.72;;;;;;;;;;4975676;28;20272;-76
2022/10/28 02:52:57;;;;;;;7.32;4.30;;;;;;;;;;4956518;29;20246;-75
2022/10/28 02:55:29;;;;;;;13.05;4.43;;;;;;;;;;4956251;29;20234;-75
2022/10/28 02:57:57;;;;;;;9.23;3.92;;;;;;;;;;4956747;29;20237;-75
2022/10/28 03:00:26;;;;;;;10.90;4.18;;;;;;;;;;4956708;28;20308;-75
2022/10/28 03:02:56;;;;;;;8.32;4.10;;;;;;;;;;4956795;28;20619;-76
2022/10/28 03:05:24;;;;;;;6.57;4.22;;;;;;;;;;4962998;28;20256;-75
2022/10/28 03:07:53;;;;;;;7.75;3.97;;;;;;;;;;4956122;28;20293;-76
2022/10/28 03:10:22;;;;;;;8.90;3.85;;;;;;;;;;4955362;28;20222;-75
2022/10/28 03:12:50;;;;;;;6.60;4.20;;;;;;;;;;4956209;29;20246;-75
2022/10/28 03:15:18;;;;;;;9.50;4.15;;;;;;;;;;4955951;29;20260;-75
2022/10/28 03:17:47;;;;;;;8.30;3.85;;;;;;;;;;4956026;28;20249;-76
2022/10/28 03:20:17;;;;;;;8.75;4.50;;;;;;;;;;4969116;28;20277;-75
2022/10/28 03:22:45;;;;;;;8.80;4.40;;;;;;;;;;4975118;28;20245;-75
2022/10/28 03:25:14;;;;;;;9.45;4.22;;;;;;;;;;4974954;28;20248;-76
2022/10/28 03:27:42;;;;;;;7.72;4.15;;;;;;;;;;4975179;28;20715;-76
2022/10/28 03:30:13;;;;;;;8.98;4.38;;;;;;;;;;4975288;28;20253;-76
2022/10/28 03:32:42;;;;;;;8.45;4.20;;;;;;;;;;4975263;28;20218;-75
2022/10/28 03:35:10;;;;;;;7.90;4.47;;;;;;;;;;4955626;28;20297;-76
2022/10/28 03:37:43;;;;;;;7.50;3.60;;;;;;;;;;4973508;28;20249;-75
2022/10/28 03:40:12;;;;;;;12.07;4.53;;;;;;;;;;4974629;28;20249;-76
2022/10/28 03:42:41;;;;;;;13.10;4.57;;;;;;;;;;4975129;28;20246;-76
2022/10/28 03:45:10;;;;;;;8.13;4.03;;;;;;;;;;4974934;28;20667;-76
2022/10/28 03:47:38;;;;;;;8.32;4.22;;;;;;;;;;4975064;28;20691;-76
2022/10/28 03:50:08;;;;;;;6.85;4.15;;;;;;;;;;4974677;28;20722;-75
2022/10/28 03:52:36;;;;;;;12.27;3.90;;;;;;;;;;4974942;28;20681;-76
2022/10/28 03:55:06;;;;;;;7.28;4.30;;;;;;;;;;4975154;28;20202;-76
2022/10/28 03:57:35;;;;;;;9.10;3.88;;;;;;;;;;4974967;28;20248;-75
2022/10/28 04:00:04;;;;;;;7.13;4.30;;;;;;;;;;4974766;28;20710;-75
2022/10/28 04:02:32;;;;;;;8.45;3.97;;;;;;;;;;4974279;28;20626;-75
2022/10/28 04:05:01;;;;;;;7.68;3.83;;;;;;;;;;4974398;28;20304;-75
2022/10/28 04:07:29;;;;;;;5.88;3.80;;;;;;;;;;4974816;28;20245;-76
2022/10/28 04:09:57;;;;;;;10.23;4.05;;;;;;;;;;4974558;28;20237;-76
2022/10/28 04:12:27;;;;;;;6.68;4.00;;;;;;;;;;4974744;28;20248;-76
2022/10/28 04:14:56;;;;;;;7.93;4.15;;;;;;;;;;4974456;28;20300;-76
2022/10/28 04:17:24;;;;;;;10.50;4.07;;;;;;;;;;4961190;28;20206;-76
2022/10/28 04:19:53;;;;;;;8.50;3.75;;;;;;;;;;4961898;28;20230;-76
2022/10/28 04:22:21;;;;;;;9.48;4.28;;;;;;;;;;4974553;28;20296;-76
2022/10/28 04:24:50;;;;;;;7.72;3.85;;;;;;;;;;4974521;28;20321;-76
2022/10/28 04:27:18;;;;;;;6.03;3.75;;;;;;;;;;4973222;28;20201;-76
2022/10/28 04:29:48;;;;;;;9.20;4.00;;;;;;;;;;4974143;28;20614;-76
2022/10/28 04:32:16;;;;;;;8.95;4.13;;;;;;;;;;4973673;28;20237;-76
2022/10/28 04:34:45;;;;;;;7.15;4.07;;;;;;;;;;4974401;28;20206;-76
2022/10/28 04:37:13;;;;;;;10.85;4.10;;;;;;;;;;4960034;28;20238;-75
2022/10/28 04:39:47;;;;;;;8.77;4.30;;;;;;;;;;4955053;29;20210;-75
2022/10/28 04:42:16;;;;;;;8.27;4.28;;;;;;;;;;4965076;28;20253;-76
2022/10/28 04:44:44;;;;;;;10.88;4.38;;;;;;;;;;4974016;28;20229;-76
2022/10/28 04:47:14;;;;;;;11.57;4.40;;;;;;;;;;4973856;28;20356;-76
2022/10/28 04:49:42;;;;;;;6.22;3.85;;;;;;;;;;4973795;28;20295;-75
2022/10/28 04:52:11;;;;;;;7.85;3.72;;;;;;;;;;4972591;28;20312;-76
2022/10/28 04:54:46;;;;;;;6.10;3.80;;;;;;;;;;4972137;28;20265;-75
2022/10/28 04:57:16;;;;;;;8.38;3.80;;;;;;;;;;4974047;28;20236;-75
2022/10/28 04:59:46;;;;;;;6.80;3.88;;;;;;;;;;4973799;28;20277;-75
2022/10/28 05:02:16;;;;;;;9.45;4.22;;;;;;;;;;4974104;28;20280;-75
2022/10/28 05:04:45;;;;;;;8.73;3.78;;;;;;;;;;4962192;28;20237;-76
2022/10/28 05:07:13;;;;;;;6.90;3.85;;;;;;;;;;4956805;28;20269;-75
2022/10/28 05:09:47;;;;;;;6.22;3.70;;;;;;;;;;4973757;28;20230;-77
2022/10/28 05:12:15;;;;;;;8.80;4.30;;;;;;;;;;4965679;28;20230;-76
2022/10/28 05:14:44;;;;;;;16.48;4.15;;;;;;;;;;4968175;28;20210;-75
2022/10/28 05:17:17;;;;;;;6.78;3.60;;;;;;;;;;4961816;28;20207;-75
2022/10/28 05:19:46;;;;;;;5.93;3.92;;;;;;;;;;4963198;28;20229;-76
2022/10/28 05:22:14;;;;;;;6.50;3.65;;;;;;;;;;4966968;28;20261;-76
2022/10/28 05:24:43;;;;;;;7.78;4.10;;;;;;;;;;4964908;28;20207;-75
2022/10/28 05:27:12;;;;;;;8.85;4.38;;;;;;;;;;4971099;28;20244;-76
2022/10/28 05:29:40;;;;;;;7.90;3.95;;;;;;;;;;4973590;28;20213;-75
2022/10/28 05:32:09;;;;;;;8.77;4.07;;;;;;;;;;4973755;28;20253;-75
2022/10/28 05:34:39;;;;;;;8.48;3.95;;;;;;;;;;4977372;28;20297;-76
2022/10/28 05:37:07;;;;;;;8.80;4.18;;;;;;;;;;4971325;28;20691;-75
2022/10/28 05:39:36;;;;;;;13.07;4.30;;;;;;;;;;4971292;28;20668;-75
2022/10/28 05:42:05;;;;;;;8.77;3.80;;;;;;;;;;4974363;28;20236;-76
2022/10/28 05:44:33;;;;;;;8.95;4.00;;;;;;;;;;4965285;28;20252;-78
2022/10/28 05:47:02;;;;;;;11.68;3.70;;;;;;;;;;4976374;28;20252;-76
2022/10/28 05:49:31;;;;;;;7.45;3.78;;;;;;;;;;4973524;28;20293;-76
2022/10/28 05:52:01;;;;;;;7.97;3.95;;;;;;;;;;4974934;28;20317;-76
2022/10/28 05:54:29;;;;;;;6.43;4.13;;;;;;;;;;4975440;28;20244;-75
2022/10/28 05:56:58;;;;;;;11.63;4.35;;;;;;;;;;4976575;28;20206;-75
2022/10/28 05:59:26;;;;;;;9.05;4.10;;;;;;;;;;4976386;28;20241;-75
2022/10/28 06:01:55;;;;;;;8.35;3.88;;;;;;;;;;4976609;28;20317;-76
2022/10/28 06:04:23;;;;;;;11.88;3.92;;;;;;;;;;4976987;28;20206;-75
2022/10/28 06:06:54;;;;;;;7.97;4.38;;;;;;;;;;4965190;28;20617;-75
2022/10/28 06:09:24;;;;;;;7.43;3.95;;;;;;;;;;4971566;28;20650;-75
2022/10/28 06:11:53;;;;;;;9.88;4.60;;;;;;;;;;4977051;28;20742;-75
2022/10/28 06:14:21;;;;;;;10.15;4.43;;;;;;;;;;4976499;28;20297;-76
2022/10/28 06:16:49;;;;;;;7.10;4.50;;;;;;;;;;4976670;28;20269;-75
2022/10/28 06:19:18;;;;;;;9.93;4.30;;;;;;;;;;4976401;28;20292;-75
2022/10/28 06:21:46;;;;;;;6.47;4.30;;;;;;;;;;4976359;28;20257;-75
2022/10/28 06:24:15;;;;;;;10.68;4.50;;;;;;;;;;4976523;28;20649;-75
2022/10/28 06:26:45;;;;;;;9.00;4.45;;;;;;;;;;4976279;28;20242;-76
2022/10/28 06:29:13;;;;;;;8.63;4.82;;;;;;;;;;4976186;28;20251;-75
2022/10/28 06:31:42;;;;;;;10.68;4.55;;;;;;;;;;4976472;28;20222;-75
2022/10/28 06:34:10;;;;;;;10.02;4.55;;;;;;;;;;4976429;28;20256;-76
2022/10/28 06:36:39;;;;;;;9.55;4.70;;;;;;;;;;4973003;28;20241;-76
2022/10/28 06:39:07;;;;;;;10.52;4.70;;;;;;;;;;4976143;28;20220;-75
2022/10/28 06:41:36;;;;;;;6.97;4.17;;;;;;;;;;4976037;28;20316;-75
2022/10/28 06:44:06;;;;;;;10.55;4.95;;;;;;;;;;4975683;28;20292;-75
2022/10/28 06:46:35;;;;;;;8.40;4.72;;;;;;;;;;4976233;28;20631;-75
2022/10/28 06:49:04;;;;;;;11.47;4.90;;;;;;;;;;4975836;28;20202;-75
2022/10/28 06:51:33;;;;;;;7.63;4.43;;;;;;;;;;4975552;28;20217;-75
2022/10/28 06:54:01;;;;;;;10.63;4.50;;;;;;;;;;4975726;28;20698;-75
2022/10/28 06:56:30;;;;;;;8.13;4.60;;;;;;;;;;4975880;28;20233;-75
2022/10/28 06:58:58;;;;;;;9.10;4.82;;;;;;;;;;4975713;28;20206;-75
2022/10/28 07:01:28;;;;;;;6.10;4.30;;;;;;;;;;4975771;28;20317;-75
2022/10/28 07:03:56;;;;;;;11.07;4.40;;;;;;;;;;4976395;28;20698;-75
2022/10/28 07:06:25;;;;;;;7.43;4.30;;;;;;;;;;4967037;28;20254;-75
2022/10/28 07:08:53;;;;;;;10.93;4.90;;;;;;;;;;4960739;28;20202;-75
2022/10/28 07:11:23;;;;;;;8.07;4.77;;;;;;;;;;4975508;28;21043;-75
2022/10/28 07:13:51;;;;;;;7.20;4.40;;;;;;;;;;4976200;28;20667;-75
2022/10/28 07:16:19;;;;;;;7.95;5.03;;;;;;;;;;4975595;28;20202;-75
2022/10/28 07:18:49;;;;;;;10.93;4.95;;;;;;;;;;4975620;28;20244;-75
2022/10/28 07:21:20;;;;;;;8.48;4.20;;;;;;;;;;4975468;28;20261;-75
2022/10/28 07:23:49;;;;;;;6.45;4.55;;;;;;;;;;4975762;28;20639;-75
2022/10/28 07:26:17;;;;;;;9.88;4.68;;;;;;;;;;4974997;28;20241;-75
2022/10/28 07:28:45;;;;;;;9.57;4.13;;;;;;;;;;4975418;28;20248;-75
2022/10/28 07:31:14;;;;;;;7.93;4.22;;;;;;;;;;4975281;28;20280;-75
2022/10/28 07:33:42;;;;;;;12.85;4.57;;;;;;;;;;4975279;28;20244;-75
2022/10/28 07:36:12;;;;;;;9.63;4.30;;;;;;;;;;4975187;28;20206;-75
2022/10/28 07:38:41;;;;;;;10.10;4.55;;;;;;;;;;4974831;28;20209;-75
2022/10/28 07:41:10;;;;;;;8.55;4.43;;;;;;;;;;4969703;28;20317;-75
2022/10/28 07:43:39;;;;;;;9.40;4.43;;;;;;;;;;4955591;28;20313;-75
2022/10/28 07:46:08;;;;;;;6.50;3.95;;;;;;;;;;4955517;28;20650;-75
2022/10/28 07:48:37;;;;;;;8.80;4.38;;;;;;;;;;4955805;29;20693;-75
2022/10/28 07:51:06;;;;;;;12.60;4.47;;;;;;;;;;4955773;28;20589;-75
2022/10/28 07:53:36;;;;;;;9.13;4.63;;;;;;;;;;4973006;28;20233;-75
2022/10/28 07:56:07;;;;;;;8.05;4.32;;;;;;;;;;4974010;28;20241;-75
2022/10/28 07:58:36;;;;;;;11.07;4.72;;;;;;;;;;4974754;28;20285;-75
2022/10/28 08:01:06;;;;;;;8.75;4.68;;;;;;;;;;4974877;28;20410;-75
2022/10/28 08:03:35;;;;;;;7.32;4.60;;;;;;;;;;4974866;28;20698;-75
2022/10/28 08:06:07;;;;;;;10.32;4.88;;;;;;;;;;4974273;28;20301;-75
2022/10/28 08:08:37;;;;;;;8.45;5.18;;;;;;;;;;4974608;28;20643;-75
2022/10/28 08:11:09;;;;;;;10.15;4.43;;;;;;;;;;4974839;28;20289;-75
2022/10/28 08:13:38;;;;;;;12.77;4.78;;;;;;;;;;4974677;28;20256;-75
2022/10/28 08:16:08;;;;;;;7.80;4.80;;;;;;;;;;4974645;28;20280;-75
2022/10/28 08:18:37;;;;;;;11.63;4.80;;;;;;;;;;4974675;28;20241;-75
2022/10/28 08:21:06;;;;;;;7.80;4.65;;;;;;;;;;4974128;28;20769;-75
2022/10/28 08:23:37;;;;;;;9.35;4.55;;;;;;;;;;4974344;28;20321;-75
2022/10/28 08:26:06;;;;;;;8.50;4.78;;;;;;;;;;4974513;28;20194;-75
2022/10/28 08:28:34;;;;;;;8.25;4.40;;;;;;;;;;4974270;28;20241;-75
2022/10/28 08:31:03;;;;;;;7.93;4.38;;;;;;;;;;4974090;28;20313;-75
2022/10/28 08:33:36;;;;;;;8.85;4.30;;;;;;;;;;4974625;28;20185;-75
2022/10/28 08:36:05;;;;;;;7.50;4.00;;;;;;;;;;4974107;28;20206;-75
2022/10/28 08:38:34;;;;;;;5.82;3.60;;;;;;;;;;4974329;28;20210;-76
2022/10/28 08:41:08;;;;;;;11.35;4.30;;;;;;;;;;4969838;28;20281;-75
2022/10/28 08:43:44;;;;;;;8.25;3.80;;;;;;;;;;4954870;29;20306;-75
2022/10/28 08:46:28;;;;;;;9.23;3.70;;;;;;;;;;4954840;29;20243;-75
2022/10/28 08:48:56;;;;;;;8.90;4.13;;;;;;;;;;4958432;28;20230;-75
2022/10/28 08:51:28;;;;;;;9.88;3.67;;;;;;;;;;4974218;28;20672;-75
2022/10/28 08:53:59;;;;;;;10.60;3.83;;;;;;;;;;4974137;28;20228;-75
2022/10/28 08:56:32;;;;;;;4.03;3.03;;;;;;;;;;4973949;28;20190;-75
2022/10/28 08:59:01;;;;;;;6.70;3.45;;;;;;;;;;4974063;28;20237;-75
2022/10/28 09:01:35;;;;;;;6.38;3.80;;;;;;;;;;4974497;28;20261;-75
2022/10/28 09:04:07;;;;;;;7.85;3.63;;;;;;;;;;4973619;28;20217;-75
2022/10/28 09:06:36;;;;;;;10.35;3.35;;;;;;;;;;4974957;28;20234;-75
2022/10/28 09:09:04;;;;;;;7.88;3.47;;;;;;;;;;4977881;28;20210;-75
2022/10/28 09:11:48;;;;;;;9.70;3.67;;;;;;;;;;4977195;28;20260;-75
2022/10/28 09:14:23;;;;;;;8.80;3.60;;;;;;;;;;4977698;28;20614;-75
2022/10/28 09:16:55;;;;;;;6.60;3.40;;;;;;;;;;4977639;28;20229;-75
2022/10/28 09:19:30;;;;;;;8.82;3.75;;;;;;;;;;4977763;28;20240;-75
2022/10/28 09:22:04;;;;;;;12.00;3.95;;;;;;;;;;4977397;28;20271;-75
2022/10/28 09:24:39;;;;;;;10.75;3.75;;;;;;;;;;4977307;28;20264;-75
2022/10/28 09:27:13;;;;;;;7.90;3.50;;;;;;;;;;4977462;28;20284;-75
2022/10/28 09:29:45;;;;;;;8.02;3.30;;;;;;;;;;4976911;28;20237;-75
2022/10/28 09:32:19;;;;;;;8.23;3.70;;;;;;;;;;4977691;28;20241;-75
2022/10/28 09:34:49;;;;;;;6.85;3.33;;;;;;;;;;4977546;28;20226;-77
2022/10/28 09:37:20;;;;;;;12.15;3.75;;;;;;;;;;4977236;28;20190;-75
2022/10/28 09:39:51;;;;;;;11.07;3.72;;;;;;;;;;4977328;28;20277;-75
2022/10/28 09:42:24;;;;;;;11.85;3.70;;;;;;;;;;4977241;28;20241;-75
2022/10/28 09:44:54;;;;;;;8.82;3.67;;;;;;;;;;4976778;28;20782;-76
2022/10/28 09:47:24;;;;;;;11.15;3.55;;;;;;;;;;4977493;28;20238;-75
2022/10/28 09:49:54;;;;;;;11.85;3.50;;;;;;;;;;4977289;28;20237;-75
2022/10/28 09:52:25;;;;;;;7.68;3.45;;;;;;;;;;4977224;28;20237;-75
2022/10/28 09:54:55;;;;;;;6.88;3.60;;;;;;;;;;4977213;28;20214;-75
2022/10/28 09:57:28;;;;;;;10.68;3.22;;;;;;;;;;4976863;28;20214;-75
2022/10/28 09:59:57;;;;;;;10.77;3.40;;;;;;;;;;4976649;28;20285;-76
2022/10/28 10:02:27;;;;;;;7.72;3.35;;;;;;;;;;4976821;28;20252;-75
2022/10/28 10:04:56;;;;;;;9.15;3.63;;;;;;;;;;4976624;28;20229;-75
2022/10/28 10:07:29;;;;;;;10.98;3.58;;;;;;;;;;4960939;28;20210;-75
2022/10/28 10:09:59;;;;;;;8.27;3.55;;;;;;;;;;4957222;28;20226;-75
2022/10/28 10:12:29;;;;;;;5.82;3.30;;;;;;;;;;4972705;28;20297;-75
2022/10/28 10:14:59;;;;;;;8.38;3.30;;;;;;;;;;4976750;28;20304;-75
2022/10/28 10:17:30;;;;;;;8.77;3.40;;;;;;;;;;4976316;28;20297;-75
2022/10/28 10:19:59;;;;;;;9.15;3.88;;;;;;;;;;4976199;28;20237;-75
2022/10/28 10:22:31;;;;;;;8.40;3.20;;;;;;;;;;4976806;28;20710;-76
2022/10/28 10:25:00;;;;;;;11.65;3.72;;;;;;;;;;4976559;28;20670;-75
2022/10/28 10:27:31;;;;;;;11.40;3.92;;;;;;;;;;4976473;28;20264;-76
2022/10/28 10:29:59;;;;;;;11.73;3.85;;;;;;;;;;4976385;28;20233;-75
2022/10/28 10:32:30;;;;;;;11.02;3.88;;;;;;;;;;4976779;28;20257;-75
2022/10/28 10:35:01;;;;;;;10.95;3.78;;;;;;;;;;4976076;28;20229;-76
2022/10/28 10:37:30;;;;;;;18.30;4.50;;;;;;;;;;4959920;28;20202;-75
2022/10/28 10:40:04;;;;;;;13.93;3.78;;;;;;;;;;4957138;28;20206;-75
2022/10/28 10:42:34;;;;;;;8.57;3.47;;;;;;;;;;4972904;28;20597;-76
2022/10/28 10:45:23;;;;;;;9.82;3.50;;;;;;;;;;4976012;28;20297;-75
2022/10/28 10:48:08;;;;;;;10.35;3.83;;;;;;;;;;4976516;28;20245;-76
2022/10/28 10:50:37;;;;;;;10.80;4.05;;;;;;;;;;4976138;28;20218;-75
2022/10/28 10:53:06;;;;;;;7.10;3.42;;;;;;;;;;4975885;28;20698;-75
2022/10/28 10:55:36;;;;;;;12.02;3.58;;;;;;;;;;4975452;28;20229;-76
2022/10/28 10:58:07;;;;;;;10.00;3.80;;;;;;;;;;4975852;28;20619;-76
2022/10/28 11:00:37;;;;;;;12.93;3.63;;;;;;;;;;4975957;28;20312;-75
2022/10/28 11:03:07;;;;;;;9.30;3.30;;;;;;;;;;4976362;28;20213;-75
2022/10/28 11:05:35;;;;;;;19.33;4.15;;;;;;;;;;4975304;28;20316;-75
2022/10/28 11:08:06;;;;;;;10.82;3.53;;;;;;;;;;4976700;28;20496;-76
2022/10/28 11:10:35;;;;;;;6.95;3.25;;;;;;;;;;4975537;28;20234;-76
2022/10/28 11:13:05;;;;;;;11.18;3.60;;;;;;;;;;4975816;28;20232;-75
2022/10/28 11:15:35;;;;;;;11.00;3.42;;;;;;;;;;4975271;28;20297;-76
2022/10/28 11:18:04;;;;;;;10.02;3.60;;;;;;;;;;4975415;28;20248;-75
2022/10/28 11:20:42;;;;;;;7.57;3.72;;;;;;;;;;4975456;28;20229;-75
2022/10/28 11:23:30;;;;;;;10.25;3.75;;;;;;;;;;4976120;28;20598;-74
2022/10/28 11:26:01;;;;;;;10.57;3.60;;;;;;;;;;4974544;28;20672;-77
2022/10/28 11:28:47;;;;;;;10.13;3.53;;;;;;;;;;4975654;28;20627;-78
2022/10/28 11:31:27;;;;;;;6.07;3.10;;;;;;;;;;4957790;28;20222;-76
2022/10/28 11:33:59;;;;;;;7.35;3.45;;;;;;;;;;4974892;28;20252;-75
2022/10/28 11:36:30;;;;;;;10.30;3.55;;;;;;;;;;4966433;28;20250;-75
2022/10/28 11:39:11;;;;;;;11.30;3.72;;;;;;;;;;4956287;28;20683;-75
2022/10/28 11:41:44;;;;;;;8.15;3.80;;;;;;;;;;4955618;28;20314;-75
2022/10/28 11:44:17;;;;;;;11.02;3.97;;;;;;;;;;4956443;29;20642;-75
2022/10/28 11:46:53;;;;;;;10.27;3.00;;;;;;;;;;4957294;28;20256;-76
2022/10/28 11:49:43;;;;;;;9.68;3.50;;;;;;;;;;4975036;28;20248;-75
2022/10/28 11:52:17;;;;;;;8.23;3.60;;;;;;;;;;4975323;28;20234;-76
2022/10/28 11:54:52;;;;;;;9.23;3.58;;;;;;;;;;4973031;28;20284;-76
2022/10/28 11:57:25;;;;;;;10.27;3.70;;;;;;;;;;4974747;28;20684;-76
2022/10/28 12:00:11;;;;;;;11.60;3.20;;;;;;;;;;4973523;28;20525;-75
2022/10/28 12:02:47;;;;;;;11.52;3.90;;;;;;;;;;4965024;28;20201;-75
2022/10/28 12:05:24;;;;;;;11.60;3.75;;;;;;;;;;4974566;28;20288;-75
2022/10/28 12:08:00;;;;;;;11.77;3.60;;;;;;;;;;4974274;28;20264;-77
2022/10/28 12:10:34;;;;;;;11.18;3.83;;;;;;;;;;4974178;28;20239;-76
2022/10/28 12:13:06;;;;;;;12.68;3.45;;;;;;;;;;4970939;28;20244;-75
2022/10/28 12:15:41;;;;;;;10.13;3.70;;;;;;;;;;4972802;28;20304;-76
2022/10/28 12:18:18;;;;;;;10.02;3.72;;;;;;;;;;4970296;28;20267;-76
2022/10/28 12:20:52;;;;;;;13.48;3.38;;;;;;;;;;4970394;28;20698;-75
2022/10/28 12:23:24;;;;;;;11.15;3.58;;;;;;;;;;4974196;28;20206;-75
2022/10/28 12:25:56;;;;;;;7.78;3.58;;;;;;;;;;4974220;28;20222;-76
2022/10/28 12:28:27;;;;;;;10.40;3.20;;;;;;;;;;4955960;28;20194;-75
2022/10/28 12:30:58;;;;;;;16.75;3.58;;;;;;;;;;4970905;28;20226;-75
2022/10/28 12:33:35;;;;;;;9.82;3.72;;;;;;;;;;4969055;28;20312;-77
2022/10/28 12:36:18;;;;;;;8.13;3.72;;;;;;;;;;4971090;28;20202;-76
2022/10/28 12:38:50;;;;;;;12.55;4.03;;;;;;;;;;4972355;28;20268;-76
2022/10/28 12:41:22;;;;;;;9.73;3.72;;;;;;;;;;4973861;28;20256;-76
2022/10/28 12:43:52;;;;;;;9.70;3.67;;;;;;;;;;4978097;28;20233;-75
2022/10/28 12:46:26;;;;;;;10.15;3.85;;;;;;;;;;4976608;28;20249;-76
2022/10/28 12:49:15;;;;;;;13.88;3.60;;;;;;;;;;4977276;28;20209;-75
2022/10/28 12:51:44;;;;;;;10.80;3.58;;;;;;;;;;4978096;28;20232;-75
2022/10/28 12:54:17;;;;;;;9.00;3.80;;;;;;;;;;4977174;28;20213;-76
2022/10/28 12:56:51;;;;;;;11.05;3.28;;;;;;;;;;4977521;28;20631;-76
2022/10/28 12:59:23;;;;;;;11.90;3.80;;;;;;;;;;4974183;28;20694;-75
2022/10/28 13:01:52;;;;;;;10.95;3.70;;;;;;;;;;4976602;28;20687;-75
2022/10/28 13:04:22;;;;;;;8.85;3.80;;;;;;;;;;4982917;28;20210;-76
2022/10/28 13:06:58;;;;;;;13.63;3.67;;;;;;;;;;4977008;28;20320;-76
2022/10/28 13:09:42;;;;;;;11.77;3.60;;;;;;;;;;4975302;28;20289;-76
2022/10/28 13:12:38;;;;;;;11.57;3.95;;;;;;;;;;4976907;28;20233;-76
2022/10/28 13:15:21;;;;;;;11.32;3.55;;;;;;;;;;4976836;28;20569;-76
2022/10/28 13:17:57;;;;;;;8.30;3.20;;;;;;;;;;4964811;28;20198;-76
2022/10/28 13:20:31;;;;;;;11.75;3.20;;;;;;;;;;4975347;28;20279;-76
2022/10/28 13:23:04;;;;;;;10.40;4.10;;;;;;;;;;4974808;28;20232;-75
2022/10/28 13:25:43;;;;;;;10.15;3.60;;;;;;;;;;4976583;28;20317;-76
2022/10/28 13:28:14;;;;;;;10.30;3.78;;;;;;;;;;4975721;28;20233;-76
2022/10/28 13:30:52;;;;;;;9.98;3.50;;;;;;;;;;4976791;28;20757;-76
2022/10/28 13:33:24;;;;;;;8.13;3.60;;;;;;;;;;4977310;28;20238;-75
2022/10/28 13:35:54;;;;;;;9.02;3.47;;;;;;;;;;4977411;28;20194;-76
2022/10/28 13:38:24;;;;;;;7.10;3.30;;;;;;;;;;4975035;28;20636;-76
2022/10/28 13:41:09;;;;;;;10.52;4.05;;;;;;;;;;4977235;28;20750;-76
2022/10/28 13:43:58;;;;;;;10.05;3.92;;;;;;;;;;4974974;28;20217;-76
2022/10/28 13:46:41;;;;;;;14.55;3.92;;;;;;;;;;4970290;28;20257;-79
2022/10/28 13:49:24;;;;;;;11.77;4.00;;;;;;;;;;4969252;28;20244;-76
2022/10/28 13:52:00;;;;;;;10.98;3.35;;;;;;;;;;4976709;28;20256;-77
2022/10/28 13:54:31;;;;;;;11.80;3.58;;;;;;;;;;4975545;28;20389;-76
2022/10/28 13:57:05;;;;;;;8.43;3.88;;;;;;;;;;4978727;28;20230;-76
2022/10/28 13:59:40;;;;;;;17.35;3.78;;;;;;;;;;4975985;28;20685;-76
2022/10/28 14:02:22;;;;;;;11.05;3.60;;;;;;;;;;4974332;28;20263;-77
2022/10/28 14:05:07;;;;;;;8.15;3.28;;;;;;;;;;4975886;28;20637;-76
2022/10/28 14:07:39;;;;;;;11.00;3.90;;;;;;;;;;4976704;28;20285;-76
2022/10/28 14:10:15;;;;;;;9.88;3.40;;;;;;;;;;4971418;28;20286;-76
2022/10/28 14:12:49;;;;;;;9.25;3.53;;;;;;;;;;4976233;28;20722;-77
2022/10/28 14:15:19;;;;;;;11.70;3.58;;;;;;;;;;4976153;28;20213;-77
2022/10/28 14:17:49;;;;;;;12.02;3.63;;;;;;;;;;4976745;28;20570;-76
2022/10/28 14:20:28;;;;;;;10.35;3.80;;;;;;;;;;4972981;28;20233;-76
2022/10/28 14:22:58;;;;;;;11.38;3.85;;;;;;;;;;4974263;28;20214;-77
2022/10/28 14:25:47;;;;;;;9.48;3.95;;;;;;;;;;4976431;28;20205;-76
2022/10/28 14:28:34;;;;;;;11.63;4.22;;;;;;;;;;4966462;28;20676;-76
2022/10/28 14:31:33;;;;;;;8.70;3.15;;;;;;;;;;4973824;28;20257;-77
2022/10/28 14:34:20;;;;;;;9.30;3.40;;;;;;;;;;4975480;28;20202;-77
2022/10/28 14:36:53;;;;;;;11.25;3.75;;;;;;;;;;4975954;28;20202;-76
2022/10/28 14:39:33;;;;;;;11.95;3.70;;;;;;;;;;4977683;28;20242;-76
2022/10/28 14:42:09;;;;;;;12.10;3.80;;;;;;;;;;4970604;28;20260;-76
2022/10/28 14:44:46;;;;;;;10.27;3.38;;;;;;;;;;4969040;28;20225;-79
2022/10/28 14:47:25;;;;;;;9.85;3.70;;;;;;;;;;4973230;28;20248;-76
2022/10/28 14:50:00;;;;;;;12.88;4.05;;;;;;;;;;4975796;28;20209;-76
2022/10/28 14:52:30;;;;;;;9.82;3.75;;;;;;;;;;4975575;28;20233;-77
2022/10/28 14:55:01;;;;;;;9.80;3.58;;;;;;;;;;4974024;28;20241;-76
2022/10/28 14:57:31;;;;;;;12.13;3.60;;;;;;;;;;4973483;28;20607;-76
2022/10/28 15:00:02;;;;;;;8.90;3.75;;;;;;;;;;4974631;28;20206;-76
2022/10/28 15:02:32;;;;;;;13.63;3.92;;;;;;;;;;4970757;28;20595;-77
2022/10/28 15:05:03;;;;;;;13.40;4.13;;;;;;;;;;4965170;28;20217;-76